createdAt,value
2022-10-14T00:02:15.155Z,82.44
2022-10-14T00:04:44.895Z,83.50
2022-10-14T00:07:14.645Z,83.67
2022-10-14T00:09:44.725Z,82.48
2022-10-14T00:12:15.632Z,83.12
2022-10-14T00:14:45.669Z,83.01
2022-10-14T00:17:15.713Z,82.20
2022-10-14T00:19:45.958Z,82.91
2022-10-14T00:22:15.489Z,82.81
2022-10-14T00:24:45.229Z,82.94
2022-10-14T00:27:15.955Z,82.79
2022-10-14T00:29:45.848Z,82.71
2022-10-14T00:32:15.391Z,82.71
2022-10-14T00:34:45.768Z,82.77
2022-10-14T00:37:15.580Z,82.65
2022-10-14T00:39:45.618Z,82.37
2022-10-14T00:42:16.536Z,83.13
2022-10-14T00:44:49.610Z,82.92
2022-10-14T00:47:20.087Z,82.41
2022-10-14T00:49:49.873Z,82.05
2022-10-14T00:52:22.955Z,82.69
2022-10-14T00:55:12.590Z,81.71
2022-10-14T00:57:43.185Z,81.29
2022-10-14T01:00:16.290Z,81.59
2022-10-14T01:02:46.634Z,81.74
2022-10-14T01:05:19.378Z,82.71
2022-10-14T01:07:52.162Z,82.62
2022-10-14T01:10:27.373Z,83.17
2022-10-14T01:13:09.208Z,82.62
2022-10-14T01:15:58.348Z,82.29
2022-10-14T01:18:42.677Z,82.98
2022-10-14T01:21:40.265Z,81.96
2022-10-14T01:24:31.073Z,81.49
2022-10-14T01:30:16.749Z,81.83
2022-10-14T01:33:08.813Z,81.64
2022-10-14T01:36:13.041Z,82.22
2022-10-14T01:38:57.717Z,81.96
2022-10-14T01:41:30.826Z,82.73
2022-10-14T01:44:05.107Z,82.56
2022-10-14T01:46:38.104Z,83.18
2022-10-14T01:49:10.923Z,83.29
2022-10-14T01:51:49.947Z,82.76
2022-10-14T01:54:28.105Z,82.99
2022-10-14T01:57:00.751Z,82.82
2022-10-14T01:59:31.651Z,83.16
2022-10-14T02:02:01.486Z,84.13
2022-10-14T02:04:31.384Z,83.79
2022-10-14T02:07:15.958Z,84.26
2022-10-14T02:09:54.626Z,83.98
2022-10-14T02:12:45.760Z,84.11
2022-10-14T02:15:44.599Z,84.11
2022-10-14T02:18:17.905Z,84.01
2022-10-14T02:21:02.188Z,84.01
2022-10-14T02:23:42.520Z,83.60
2022-10-14T02:26:13.392Z,83.55
2022-10-14T02:28:45.227Z,83.57
2022-10-14T02:31:18.019Z,83.88
2022-10-14T02:33:50.826Z,83.89
2022-10-14T02:36:23.449Z,83.23
2022-10-14T02:38:56.485Z,83.58
2022-10-14T02:41:29.115Z,83.56
2022-10-14T02:43:58.880Z,83.23
2022-10-14T02:46:29.534Z,83.78
2022-10-14T02:48:59.295Z,83.71
2022-10-14T02:51:29.076Z,83.33
2022-10-14T02:53:58.810Z,83.78
2022-10-14T02:56:28.625Z,83.00
2022-10-14T02:59:00.177Z,83.53
2022-10-14T03:01:35.053Z,83.44
2022-10-14T03:04:01.729Z,83.27
2022-10-14T03:06:31.490Z,83.97
2022-10-14T03:09:01.699Z,83.44
2022-10-14T03:11:33.212Z,83.51
2022-10-14T03:14:05.156Z,83.74
2022-10-14T03:16:34.959Z,83.74
2022-10-14T03:19:05.081Z,83.56
2022-10-14T03:21:42.261Z,83.61
2022-10-14T03:24:13.795Z,84.40
2022-10-14T03:26:43.913Z,83.88
2022-10-14T03:29:14.206Z,84.76
2022-10-14T03:31:59.950Z,85.28
2022-10-14T03:34:34.080Z,85.18
2022-10-14T03:37:08.610Z,85.01
2022-10-14T03:39:40.089Z,85.01
2022-10-14T03:42:11.763Z,85.29
2022-10-14T03:44:43.542Z,85.25
2022-10-14T03:47:15.353Z,85.24
2022-10-14T03:49:46.673Z,85.72
2022-10-14T03:52:17.842Z,85.61
2022-10-14T03:54:49.282Z,85.95
2022-10-14T03:57:19.039Z,85.12
2022-10-14T03:59:50.809Z,85.08
2022-10-14T04:02:21.028Z,85.86
2022-10-14T04:04:55.966Z,85.79
2022-10-14T04:07:24.811Z,85.26
2022-10-14T04:09:56.338Z,84.97
2022-10-14T04:12:26.415Z,85.51
2022-10-14T04:15:03.715Z,85.68
2022-10-14T04:17:35.167Z,85.76
2022-10-14T04:20:08.335Z,85.62
2022-10-14T04:22:38.567Z,85.38
2022-10-14T04:25:29.875Z,86.31
2022-10-14T04:28:01.643Z,86.31
2022-10-14T04:30:33.094Z,87.12
2022-10-14T04:33:02.869Z,86.30
2022-10-14T04:35:32.997Z,86.44
2022-10-14T04:38:03.108Z,86.31
2022-10-14T04:40:32.940Z,86.30
2022-10-14T04:43:03.768Z,87.40
2022-10-14T04:45:35.515Z,86.69
2022-10-14T04:48:06.755Z,87.48
2022-10-14T04:50:38.206Z,87.50
2022-10-14T04:53:25.788Z,87.75
2022-10-14T04:55:59.996Z,88.32
2022-10-14T04:58:29.824Z,87.77
2022-10-14T05:01:00.016Z,87.76
2022-10-14T05:03:31.550Z,87.22
2022-10-14T05:06:01.715Z,87.20
2022-10-14T05:08:31.806Z,86.99
2022-10-14T05:11:02.900Z,86.73
2022-10-14T05:13:34.887Z,87.46
2022-10-14T05:16:08.783Z,87.53
2022-10-14T05:18:39.866Z,87.75
2022-10-14T05:21:11.475Z,87.84
2022-10-14T05:23:42.965Z,86.84
2022-10-14T05:26:12.770Z,87.41
2022-10-14T05:28:43.659Z,88.20
2022-10-14T05:31:13.809Z,88.75
2022-10-14T05:33:45.574Z,89.52
2022-10-14T05:36:15.282Z,89.24
2022-10-14T05:38:44.941Z,88.90
2022-10-14T05:41:14.791Z,89.48
2022-10-14T05:43:45.027Z,89.14
2022-10-14T05:46:14.538Z,88.59
2022-10-14T05:48:46.081Z,88.75
2022-10-14T05:51:19.129Z,88.60
2022-10-14T05:53:49.861Z,89.91
2022-10-14T05:56:19.788Z,89.91
2022-10-14T05:58:50.608Z,88.50
2022-10-14T06:01:20.454Z,88.46
2022-10-14T06:03:53.873Z,88.15
2022-10-14T06:06:28.697Z,88.71
2022-10-14T06:08:57.179Z,88.66
2022-10-14T06:11:27.408Z,88.19
2022-10-14T06:13:57.927Z,88.15
2022-10-14T06:16:27.738Z,88.15
2022-10-14T06:18:57.923Z,89.39
2022-10-14T06:21:29.137Z,89.00
2022-10-14T06:23:58.888Z,88.88
2022-10-14T06:26:28.689Z,89.24
2022-10-14T06:28:58.843Z,89.04
2022-10-14T06:31:32.321Z,89.12
2022-10-14T06:34:00.656Z,89.75
2022-10-14T06:36:30.424Z,89.54
2022-10-14T06:39:00.261Z,89.89
2022-10-14T06:41:30.372Z,89.67
2022-10-14T06:44:00.188Z,90.05
2022-10-14T06:46:31.804Z,88.97
2022-10-14T06:49:01.588Z,89.21
2022-10-14T06:51:31.343Z,89.63
2022-10-14T06:54:01.141Z,89.46
2022-10-14T06:56:30.929Z,89.66
2022-10-14T06:59:00.930Z,89.05
2022-10-14T07:01:30.815Z,88.96
2022-10-14T07:04:00.278Z,89.24
2022-10-14T07:06:30.080Z,90.11
2022-10-14T07:08:59.820Z,88.87
2022-10-14T07:11:29.566Z,90.33
2022-10-14T07:14:00.429Z,90.33
2022-10-14T07:16:30.590Z,91.06
2022-10-14T07:19:00.504Z,91.11
2022-10-14T07:21:31.121Z,90.14
2022-10-14T07:24:01.067Z,90.76
2022-10-14T07:26:34.097Z,90.65
2022-10-14T07:29:06.489Z,89.87
2022-10-14T07:31:37.039Z,89.87
2022-10-14T07:34:08.107Z,90.34
2022-10-14T07:36:38.191Z,90.31
2022-10-14T07:39:07.879Z,89.78
2022-10-14T07:41:38.102Z,89.69
2022-10-14T07:44:10.092Z,89.49
2022-10-14T07:46:42.626Z,89.77
2022-10-14T07:49:14.841Z,89.70
2022-10-14T07:51:45.757Z,89.39
2022-10-14T07:54:24.201Z,90.00
2022-10-14T07:56:54.551Z,89.83
2022-10-14T07:59:24.652Z,90.14
2022-10-14T08:01:56.480Z,89.04
2022-10-14T08:04:26.952Z,88.95
2022-10-14T08:06:56.690Z,89.00
2022-10-14T08:11:56.560Z,88.47
2022-10-14T08:14:26.546Z,89.04
2022-10-14T08:16:56.027Z,88.49
2022-10-14T08:19:25.847Z,88.48
2022-10-14T08:21:55.620Z,89.32
2022-10-14T08:24:25.358Z,89.12
2022-10-14T08:26:58.022Z,88.19
2022-10-14T08:29:27.552Z,88.26
2022-10-14T08:31:57.291Z,88.66
2022-10-14T08:34:27.812Z,88.78
2022-10-14T08:36:57.941Z,88.01
2022-10-14T08:39:28.019Z,88.52
2022-10-14T08:42:18.997Z,88.73
2022-10-14T08:44:55.397Z,88.90
2022-10-14T08:47:37.005Z,87.95
2022-10-14T08:50:28.796Z,88.40
2022-10-14T08:53:04.629Z,87.95
2022-10-14T08:55:46.591Z,88.78
2022-10-14T08:58:28.771Z,87.55
2022-10-14T09:01:01.997Z,87.86
2022-10-14T09:03:36.720Z,87.94
2022-10-14T09:06:10.609Z,88.62
2022-10-14T09:08:48.827Z,88.19
2022-10-14T09:11:25.059Z,87.92
2022-10-14T09:13:57.918Z,88.19
2022-10-14T09:16:33.272Z,87.72
2022-10-14T09:19:06.052Z,87.28
2022-10-14T09:21:52.197Z,87.34
2022-10-14T09:24:16.612Z,87.83
2022-10-14T09:26:49.178Z,88.19
2022-10-14T09:29:34.120Z,86.77
2022-10-14T09:34:51.840Z,86.59
2022-10-14T09:37:27.838Z,86.87
2022-10-14T09:40:09.163Z,85.84
2022-10-14T09:43:06.031Z,85.56
2022-10-14T09:45:56.812Z,85.49
2022-10-14T09:48:47.086Z,85.83
2022-10-14T09:51:25.723Z,86.20
2022-10-14T09:54:04.340Z,86.20
2022-10-14T09:56:41.736Z,85.34
2022-10-14T09:59:19.408Z,85.44
2022-10-14T10:01:57.548Z,84.84
2022-10-14T10:04:35.724Z,85.35
2022-10-14T10:07:08.867Z,84.87
2022-10-14T10:09:38.937Z,84.14
2022-10-14T10:12:34.022Z,85.11
2022-10-14T10:15:07.010Z,84.82
2022-10-14T10:17:40.623Z,84.66
2022-10-14T10:20:34.233Z,84.85
2022-10-14T10:23:25.791Z,84.17
2022-10-14T10:25:55.599Z,83.14
2022-10-14T10:28:33.048Z,81.02
2022-10-14T10:31:05.818Z,80.81
2022-10-14T10:33:54.188Z,80.73
2022-10-14T10:36:38.445Z,80.41
2022-10-14T10:39:28.929Z,79.78
2022-10-14T10:42:22.595Z,80.44
2022-10-14T10:45:32.655Z,80.77
2022-10-14T10:48:15.183Z,80.76
2022-10-14T10:50:58.302Z,80.08
2022-10-14T10:53:34.034Z,80.51
2022-10-14T10:56:25.730Z,79.87
2022-10-14T10:59:05.870Z,79.44
2022-10-14T11:02:07.272Z,78.83
2022-10-14T11:04:48.739Z,79.93
2022-10-14T11:07:42.139Z,79.93
2022-10-14T11:10:35.025Z,79.87
2022-10-14T11:13:19.454Z,80.87
2022-10-14T11:16:01.235Z,80.51
2022-10-14T11:18:54.940Z,79.58
2022-10-14T11:21:27.765Z,79.50
2022-10-14T11:24:18.402Z,79.17
2022-10-14T11:27:15.375Z,79.08
2022-10-14T11:30:10.620Z,80.04
2022-10-14T11:32:52.191Z,80.22
2022-10-14T11:35:36.798Z,80.32
2022-10-14T11:38:29.286Z,80.49
2022-10-14T11:41:02.062Z,81.35
2022-10-14T11:43:41.576Z,82.40
2022-10-14T11:46:20.970Z,82.40
2022-10-14T11:48:56.203Z,84.05
2022-10-14T11:51:46.321Z,83.73
2022-10-14T11:54:33.969Z,85.23
2022-10-14T11:57:11.663Z,85.39
2022-10-14T11:59:46.760Z,85.70
2022-10-14T12:02:22.801Z,86.46
2022-10-14T12:05:07.605Z,86.03
2022-10-14T12:07:40.962Z,86.28
2022-10-14T12:10:26.898Z,85.38
2022-10-14T12:12:57.387Z,85.74
2022-10-14T12:18:02.989Z,85.58
2022-10-14T12:20:53.604Z,85.07
2022-10-14T12:23:32.730Z,84.67
2022-10-14T12:26:07.778Z,84.69
2022-10-14T12:28:39.096Z,84.06
2022-10-14T12:31:30.849Z,83.74
2022-10-14T12:34:15.780Z,84.37
2022-10-14T12:36:48.690Z,84.50
2022-10-14T12:39:21.523Z,83.86
2022-10-14T12:42:16.964Z,83.26
2022-10-14T12:44:56.284Z,83.87
2022-10-14T12:47:30.818Z,83.81
2022-10-14T12:50:03.604Z,84.08
2022-10-14T12:52:38.452Z,83.51
2022-10-14T12:55:20.221Z,83.90
2022-10-14T12:57:58.533Z,84.87
2022-10-14T13:00:31.054Z,85.26
2022-10-14T13:03:03.664Z,85.46
2022-10-14T13:05:42.191Z,85.56
2022-10-14T13:08:23.777Z,85.63
2022-10-14T13:11:02.374Z,84.88
2022-10-14T13:13:45.818Z,84.50
2022-10-14T13:16:30.287Z,84.97
2022-10-14T13:19:02.265Z,84.94
2022-10-14T13:21:37.896Z,85.72
2022-10-14T13:24:12.529Z,85.72
2022-10-14T13:26:53.807Z,85.62
2022-10-14T13:29:30.297Z,85.34
2022-10-14T13:32:03.228Z,84.38
2022-10-14T13:34:44.209Z,84.88
2022-10-14T13:37:23.922Z,84.63
2022-10-14T13:39:54.930Z,84.76
2022-10-14T13:42:30.404Z,84.57
2022-10-14T13:45:09.099Z,84.38
2022-10-14T13:47:44.017Z,83.69
2022-10-14T13:50:19.980Z,83.69
2022-10-14T13:53:01.914Z,84.10
2022-10-14T13:55:31.859Z,83.56
2022-10-14T13:58:17.312Z,84.41
2022-10-14T14:01:04.767Z,84.09
2022-10-14T14:03:39.778Z,85.48
2022-10-14T14:06:15.480Z,85.39
2022-10-14T14:08:51.502Z,85.24
2022-10-14T14:11:27.194Z,85.24
2022-10-14T14:14:11.613Z,85.21
2022-10-14T14:16:55.980Z,85.66
2022-10-14T14:19:34.446Z,85.03
2022-10-14T14:22:09.948Z,85.38
2022-10-14T14:24:39.996Z,85.32
2022-10-14T14:27:18.021Z,85.90
2022-10-14T14:29:49.811Z,86.38
2022-10-14T14:32:22.514Z,85.85
2022-10-14T14:37:48.124Z,85.46
2022-10-14T14:40:04.496Z,85.07
2022-10-14T14:42:40.828Z,86.79
2022-10-14T14:45:23.156Z,86.03
2022-10-14T14:47:56.363Z,85.14
2022-10-14T14:50:36.511Z,84.35
2022-10-14T14:53:11.766Z,84.19
2022-10-14T14:55:50.945Z,83.52
2022-10-14T14:58:35.807Z,83.26
2022-10-14T15:01:08.848Z,84.46
2022-10-14T15:04:11.503Z,84.88
2022-10-14T15:06:20.556Z,84.04
2022-10-14T15:08:53.147Z,84.02
2022-10-14T15:11:24.754Z,83.85
2022-10-14T15:13:57.566Z,83.71
2022-10-14T15:16:39.959Z,82.92
2022-10-14T15:19:35.515Z,82.76
2022-10-14T15:22:13.734Z,82.38
2022-10-14T15:25:04.417Z,81.21
2022-10-14T15:27:42.972Z,81.23
2022-10-14T15:30:32.836Z,81.02
2022-10-14T15:33:06.315Z,80.99
2022-10-14T15:35:36.968Z,81.57
2022-10-14T15:38:17.183Z,81.69
2022-10-14T15:40:48.813Z,82.02
2022-10-14T15:43:23.637Z,82.70
2022-10-14T15:46:14.804Z,82.84
2022-10-14T15:48:53.086Z,82.68
2022-10-14T15:51:24.437Z,82.04
2022-10-14T15:53:53.885Z,81.76
2022-10-14T15:56:23.765Z,82.20
2022-10-14T15:58:53.540Z,82.30
2022-10-14T16:01:24.635Z,81.65
2022-10-14T16:03:55.302Z,82.08
2022-10-14T16:06:26.862Z,82.40
2022-10-14T16:08:56.758Z,81.98
2022-10-14T16:11:31.675Z,82.26
2022-10-14T16:14:01.415Z,82.39
2022-10-14T16:16:34.215Z,81.87
2022-10-14T16:19:04.849Z,81.59
2022-10-14T16:21:34.857Z,81.82
2022-10-14T16:24:05.672Z,81.84
2022-10-14T16:26:36.963Z,81.88
2022-10-14T16:29:07.059Z,81.67
2022-10-14T16:31:36.971Z,81.56
2022-10-14T16:34:07.919Z,81.83
2022-10-14T16:36:38.046Z,81.98
2022-10-14T16:39:08.097Z,82.43
2022-10-14T16:41:38.481Z,81.53
2022-10-14T16:44:11.703Z,81.48
2022-10-14T16:46:58.989Z,81.10
2022-10-14T16:49:28.718Z,81.98
2022-10-14T16:51:58.464Z,81.81
2022-10-14T16:54:29.311Z,82.48
2022-10-14T16:56:59.594Z,82.50
2022-10-14T16:59:31.346Z,82.41
2022-10-14T17:02:02.693Z,82.12
2022-10-14T17:04:33.540Z,82.00
2022-10-14T17:07:05.011Z,81.36
2022-10-14T17:09:38.939Z,82.55
2022-10-14T17:12:20.230Z,82.07
2022-10-14T17:14:43.208Z,81.80
2022-10-14T17:17:13.239Z,82.07
2022-10-14T17:19:44.559Z,81.19
2022-10-14T17:22:14.327Z,81.46
2022-10-14T17:24:44.163Z,81.62
2022-10-14T17:27:13.997Z,81.58
2022-10-14T17:29:44.415Z,81.56
2022-10-14T17:32:14.359Z,81.82
2022-10-14T17:34:44.184Z,82.26
2022-10-14T17:37:15.467Z,81.75
2022-10-14T17:39:45.554Z,81.95
2022-10-14T17:42:16.725Z,82.52
2022-10-14T17:44:48.102Z,82.82
2022-10-14T17:47:18.162Z,82.34
2022-10-14T17:49:48.162Z,83.63
2022-10-14T17:52:18.045Z,83.06
2022-10-14T17:54:48.075Z,82.98
2022-10-14T17:57:17.848Z,83.04
2022-10-14T17:59:48.043Z,83.50
2022-10-14T18:02:20.578Z,83.03
2022-10-14T18:04:50.839Z,83.22
2022-10-14T18:07:22.503Z,82.59
2022-10-14T18:09:52.690Z,83.33
2022-10-14T18:12:24.026Z,83.39
2022-10-14T18:14:54.077Z,83.00
2022-10-14T18:17:25.274Z,83.40
2022-10-14T18:19:55.326Z,83.32
2022-10-14T18:22:25.160Z,82.78
2022-10-14T18:24:54.976Z,82.23
2022-10-14T18:27:26.574Z,82.51
2022-10-14T18:29:56.320Z,82.69
2022-10-14T18:32:26.159Z,82.92
2022-10-14T18:34:56.395Z,83.92
2022-10-14T18:37:26.160Z,83.79
2022-10-14T18:39:56.204Z,83.23
2022-10-14T18:42:26.740Z,83.62
2022-10-14T18:44:59.064Z,83.28
2022-10-14T18:47:29.329Z,82.91
2022-10-14T18:50:00.264Z,82.98
2022-10-14T18:52:30.048Z,83.46
2022-10-14T18:54:59.876Z,82.86
2022-10-14T18:57:31.797Z,83.68
2022-10-14T19:00:02.846Z,83.81
2022-10-14T19:02:33.807Z,84.01
2022-10-14T19:05:03.655Z,83.25
2022-10-14T19:07:33.450Z,83.79
2022-10-14T19:10:03.221Z,84.55
2022-10-14T19:12:42.022Z,83.66
2022-10-14T19:15:12.518Z,84.12
2022-10-14T19:17:42.741Z,83.88
2022-10-14T19:20:14.501Z,85.16
2022-10-14T19:22:45.270Z,84.64
2022-10-14T19:25:16.519Z,84.60
2022-10-14T19:27:46.300Z,84.45
2022-10-14T19:30:17.084Z,83.97
2022-10-14T19:32:47.152Z,83.40
2022-10-14T19:37:48.849Z,84.03
2022-10-14T19:40:21.277Z,84.03
2022-10-14T19:42:49.832Z,83.81
2022-10-14T19:45:19.876Z,83.73
2022-10-14T19:47:49.342Z,83.93
2022-10-14T19:50:19.102Z,83.54
2022-10-14T19:52:48.867Z,83.41
2022-10-14T19:55:18.771Z,83.68
2022-10-14T19:57:48.558Z,83.97
2022-10-14T20:00:18.518Z,83.82
2022-10-14T20:02:49.150Z,84.37
2022-10-14T20:05:18.722Z,85.61
2022-10-14T20:07:48.233Z,84.79
2022-10-14T20:10:19.839Z,85.56
2022-10-14T20:12:49.884Z,84.47
2022-10-14T20:15:19.694Z,84.55
2022-10-14T20:17:49.470Z,85.72
2022-10-14T20:20:19.061Z,85.15
2022-10-14T20:22:48.784Z,84.88
2022-10-14T20:25:18.352Z,84.47
2022-10-14T20:27:48.111Z,84.08
2022-10-14T20:30:18.489Z,84.06
2022-10-14T20:32:48.235Z,84.28
2022-10-14T20:35:17.890Z,85.68
2022-10-14T20:37:47.493Z,85.53
2022-10-14T20:40:17.347Z,85.38
2022-10-14T20:42:47.121Z,84.79
2022-10-14T20:45:17.444Z,84.52
2022-10-14T20:47:53.736Z,84.82
2022-10-14T20:50:23.896Z,84.83
2022-10-14T20:52:53.958Z,85.51
2022-10-14T20:55:24.038Z,84.89
2022-10-14T20:57:54.100Z,84.03
2022-10-14T21:00:23.645Z,84.57
2022-10-14T21:02:53.714Z,84.52
2022-10-14T21:05:23.853Z,83.80
2022-10-14T21:07:53.970Z,84.17
2022-10-14T21:10:24.275Z,83.94
2022-10-14T21:12:54.330Z,83.33
2022-10-14T21:15:25.552Z,83.77
2022-10-14T21:17:55.751Z,84.78
2022-10-14T21:20:25.221Z,84.81
2022-10-14T21:22:55.287Z,84.17
2022-10-14T21:25:25.414Z,84.44
2022-10-14T21:27:55.166Z,85.08
2022-10-14T21:30:24.971Z,85.57
2022-10-14T21:32:55.021Z,84.63
2022-10-14T21:35:24.602Z,84.23
2022-10-14T21:37:54.678Z,85.07
2022-10-14T21:40:24.253Z,85.38
2022-10-14T21:42:54.012Z,84.66
2022-10-14T21:45:24.142Z,84.66
2022-10-14T21:47:53.945Z,86.14
2022-10-14T21:50:23.666Z,86.12
2022-10-14T21:52:53.407Z,85.57
2022-10-14T21:55:22.867Z,85.60
2022-10-14T21:57:52.926Z,85.06
2022-10-14T22:00:22.769Z,84.90
2022-10-14T22:02:55.651Z,84.85
2022-10-14T22:05:25.331Z,85.39
2022-10-14T22:07:55.038Z,85.42
2022-10-14T22:10:26.161Z,84.96
2022-10-14T22:12:57.963Z,85.42
2022-10-14T22:15:27.592Z,85.57
2022-10-14T22:17:57.667Z,84.95
2022-10-14T22:20:27.518Z,85.41
2022-10-14T22:22:59.224Z,84.94
2022-10-14T22:25:29.064Z,85.61
2022-10-14T22:27:58.893Z,85.65
2022-10-14T22:30:28.722Z,85.44
2022-10-14T22:32:58.599Z,84.94
2022-10-14T22:35:28.390Z,85.58
2022-10-14T22:37:58.451Z,85.20
2022-10-14T22:40:27.987Z,85.28
2022-10-14T22:42:58.131Z,84.46
2022-10-14T22:45:27.578Z,84.08
2022-10-14T22:47:57.353Z,84.37
2022-10-14T22:50:27.272Z,84.18
2022-10-14T22:52:57.336Z,85.07
2022-10-14T22:55:26.798Z,84.49
2022-10-14T22:57:56.859Z,85.18
2022-10-14T23:00:26.767Z,85.34
2022-10-14T23:02:56.724Z,84.50
2022-10-14T23:05:26.254Z,84.34
2022-10-14T23:07:56.032Z,85.26
2022-10-14T23:10:25.866Z,85.47
2022-10-14T23:12:55.651Z,85.21
2022-10-14T23:15:25.719Z,84.98
2022-10-14T23:17:55.548Z,85.13
2022-10-14T23:20:25.666Z,84.69
2022-10-14T23:22:55.716Z,85.17
2022-10-14T23:25:25.756Z,84.66
2022-10-14T23:27:57.609Z,84.65
2022-10-14T23:30:27.399Z,84.37
2022-10-14T23:32:57.523Z,85.69
2022-10-14T23:35:27.314Z,86.43
2022-10-14T23:37:57.507Z,85.81
2022-10-14T23:40:27.301Z,85.04
2022-10-14T23:42:57.429Z,85.32
2022-10-14T23:45:27.188Z,85.71
2022-10-14T23:47:57.317Z,86.07
2022-10-14T23:50:27.100Z,85.75
2022-10-14T23:52:57.234Z,85.06
2022-10-14T23:55:27.322Z,84.86
2022-10-14T23:57:57.344Z,85.21
